Terminal Aerodrome Forecast
Issued by NWS

Home | Current Version | Previous Version | Text Only | Print | Product List | Glossary On
Versions: 1 2 3 4 5 6 7 8 9 10 11 12
000
FTUS45 KRIW 211100
TAFJAC
TAF
KJAC 211127Z 2112/2212 VRB05KT P6SM -SN SCT020 BKN035
     FM211800 19006KT P6SM SCT025 BKN040
     FM220200 19010KT P6SM SCT030 BKN060
     FM220900 19013KT 2SM -SN OVC015 WS020/23030KT
      AMD LTD TO CLD VIS AND WIND=

USA.gov is the U.S. government's official web portal to all federal, state and local government web resources and services.